createdAt,value
2023-05-05T00:02:22.713Z,101008.31
2023-05-05T00:05:25.487Z,101005.47
2023-05-05T00:08:28.593Z,100982.69
2023-05-05T00:11:30.997Z,100980.69
2023-05-05T00:14:33.355Z,100992.91
2023-05-05T00:17:35.778Z,101001.25
2023-05-05T00:20:38.321Z,100961.44
2023-05-05T00:23:40.819Z,100972.91
2023-05-05T00:26:43.237Z,100981.53
2023-05-05T00:29:45.974Z,101012.66
2023-05-05T00:32:49.385Z,100998.84
2023-05-05T00:35:51.819Z,100985.00
2023-05-05T00:38:54.249Z,100967.28
2023-05-05T00:41:56.691Z,100980.63
2023-05-05T00:44:59.310Z,101001.09
2023-05-05T00:48:01.874Z,100980.22
2023-05-05T00:51:08.861Z,100982.16
2023-05-05T00:54:11.467Z,100981.00
2023-05-05T00:57:13.832Z,100978.22
2023-05-05T01:00:16.948Z,101000.78
2023-05-05T01:03:19.412Z,100964.81
2023-05-05T01:06:22.349Z,100998.78
2023-05-05T01:09:43.429Z,100968.69
2023-05-05T01:12:59.399Z,100996.31
2023-05-05T01:16:05.099Z,100986.91
2023-05-05T01:19:16.648Z,101002.22
2023-05-05T01:22:20.671Z,100993.53
2023-05-05T01:25:50.846Z,100996.31
2023-05-05T01:29:07.718Z,100957.97
2023-05-05T01:32:12.016Z,100960.69
2023-05-05T01:35:19.283Z,100980.38
2023-05-05T01:38:24.907Z,100952.81
2023-05-05T01:41:32.549Z,100959.97
2023-05-05T01:44:36.955Z,100941.38
2023-05-05T01:47:40.468Z,100962.66
2023-05-05T01:50:43.957Z,100961.06
2023-05-05T01:53:47.365Z,100938.19
2023-05-05T01:56:50.704Z,100965.69
2023-05-05T01:59:53.347Z,100939.28
2023-05-05T02:02:59.974Z,100980.69
2023-05-05T02:06:02.944Z,100966.06
2023-05-05T02:09:05.713Z,100986.16
2023-05-05T02:12:08.604Z,100953.44
2023-05-05T02:15:12.186Z,100945.53
2023-05-05T02:18:14.969Z,100949.13
2023-05-05T02:21:21.034Z,100948.28
2023-05-05T02:24:24.400Z,100967.59
2023-05-05T02:27:27.116Z,100965.53
2023-05-05T02:30:33.642Z,100961.63
2023-05-05T02:33:38.136Z,100964.81
2023-05-05T02:36:42.503Z,100959.63
2023-05-05T02:39:58.839Z,100964.31
2023-05-05T02:43:06.000Z,100992.38
2023-05-05T02:46:09.445Z,100989.22
2023-05-05T02:49:15.254Z,100969.84
2023-05-05T02:52:18.355Z,100967.84
2023-05-05T02:55:21.377Z,100939.41
2023-05-05T02:58:31.148Z,100989.16
2023-05-05T03:01:47.456Z,100984.06
2023-05-05T03:04:58.321Z,100980.16
2023-05-05T03:08:06.006Z,100960.69
2023-05-05T03:11:16.787Z,100948.44
2023-05-05T03:14:21.484Z,100964.56
2023-05-05T03:17:25.954Z,100963.41
2023-05-05T03:20:29.328Z,100981.63
2023-05-05T03:23:34.801Z,100972.16
2023-05-05T03:26:38.573Z,100939.41
2023-05-05T03:29:41.206Z,100955.84
2023-05-05T03:32:48.574Z,100983.94
2023-05-05T03:35:51.535Z,100962.25
2023-05-05T03:38:54.655Z,100959.75
2023-05-05T03:41:58.036Z,100946.69
2023-05-05T03:45:05.052Z,100945.91
2023-05-05T03:48:09.683Z,100969.25
2023-05-05T03:51:13.753Z,100972.28
2023-05-05T03:54:17.233Z,100966.44
2023-05-05T03:57:19.769Z,100985.31
2023-05-05T04:00:22.301Z,100983.00
2023-05-05T04:03:25.035Z,100992.09
2023-05-05T04:06:27.850Z,100978.63
2023-05-05T04:09:30.356Z,100982.56
2023-05-05T04:12:33.069Z,100977.38
2023-05-05T04:15:35.674Z,100968.81
2023-05-05T04:18:38.329Z,100961.28
2023-05-05T04:21:40.960Z,100982.19
2023-05-05T04:24:43.478Z,100982.25
2023-05-05T04:27:46.051Z,100990.47
2023-05-05T04:30:49.715Z,101018.59
2023-05-05T04:33:52.222Z,100996.03
2023-05-05T04:36:55.010Z,101013.09
2023-05-05T04:39:58.150Z,101011.47
2023-05-05T04:43:00.656Z,101005.59
2023-05-05T04:46:04.419Z,101028.13
2023-05-05T04:49:09.476Z,101008.06
2023-05-05T04:52:14.959Z,101008.00
2023-05-05T04:55:17.419Z,101032.91
2023-05-05T04:58:19.779Z,101031.38
2023-05-05T05:01:22.248Z,101024.66
2023-05-05T05:04:26.018Z,101035.75
2023-05-05T05:07:28.419Z,101019.66
2023-05-05T05:10:30.766Z,101030.81
2023-05-05T05:13:33.270Z,101021.31
2023-05-05T05:16:35.813Z,100996.91
2023-05-05T05:19:38.318Z,101013.91
2023-05-05T05:22:42.230Z,101035.59
2023-05-05T05:25:49.337Z,101045.84
2023-05-05T05:28:54.074Z,101017.84
2023-05-05T05:31:56.719Z,101015.53
2023-05-05T05:34:59.237Z,101055.84
2023-05-05T05:38:02.325Z,101054.75
2023-05-05T05:41:06.595Z,101058.34
2023-05-05T05:44:10.270Z,101029.63
2023-05-05T05:47:13.204Z,101022.59
2023-05-05T05:50:16.393Z,101043.25
2023-05-05T05:53:19.079Z,101024.31
2023-05-05T05:56:22.120Z,101035.38
2023-05-05T05:59:25.365Z,101042.97
2023-05-05T06:02:27.884Z,100989.41
2023-05-05T06:05:31.445Z,101021.41
2023-05-05T06:08:34.351Z,100978.63
2023-05-05T06:11:37.226Z,101052.34
2023-05-05T06:14:39.767Z,101004.81
2023-05-05T06:17:42.777Z,101025.44
2023-05-05T06:20:45.328Z,101053.50
2023-05-05T06:23:50.263Z,101044.59
2023-05-05T06:27:02.777Z,101019.50
2023-05-05T06:30:06.846Z,101012.50
2023-05-05T06:33:09.497Z,101050.84
2023-05-05T06:36:12.050Z,101031.69
2023-05-05T06:39:16.027Z,101011.66
2023-05-05T06:42:18.669Z,101026.66
2023-05-05T06:45:21.976Z,101005.13
2023-05-05T06:48:24.563Z,101007.94
2023-05-05T06:51:27.772Z,101004.50
2023-05-05T06:54:30.368Z,100990.78
2023-05-05T06:57:35.365Z,100990.84
2023-05-05T07:00:41.040Z,101007.03
2023-05-05T07:03:44.414Z,101022.03
2023-05-05T07:06:47.516Z,100975.25
2023-05-05T07:09:49.892Z,101027.16
2023-05-05T07:12:52.564Z,101026.38
2023-05-05T07:15:55.095Z,101013.75
2023-05-05T07:18:57.532Z,101007.44
2023-05-05T07:22:00.023Z,101014.06
2023-05-05T07:25:03.942Z,101014.41
2023-05-05T07:28:06.536Z,101022.63
2023-05-05T07:31:15.616Z,101036.31
2023-05-05T07:34:21.143Z,101025.59
2023-05-05T07:37:23.681Z,100996.53
2023-05-05T07:40:30.518Z,101021.28
2023-05-05T07:43:33.582Z,101026.72
2023-05-05T07:46:36.366Z,101025.53
2023-05-05T07:49:39.073Z,101022.00
2023-05-05T07:52:48.263Z,101017.28
2023-05-05T07:55:54.162Z,100994.91
2023-05-05T07:58:59.777Z,100993.38
2023-05-05T08:02:02.217Z,101021.28
2023-05-05T08:05:05.085Z,101013.47
2023-05-05T08:08:07.944Z,101019.81
2023-05-05T08:11:10.363Z,101006.47
2023-05-05T08:14:12.745Z,101019.09
2023-05-05T08:17:15.112Z,101013.63
2023-05-05T08:20:18.608Z,101008.22
2023-05-05T08:23:21.594Z,101012.97
2023-05-05T08:26:23.934Z,101020.06
2023-05-05T08:29:26.336Z,101016.94
2023-05-05T08:32:29.892Z,101011.03
2023-05-05T08:35:32.353Z,101016.16
2023-05-05T08:38:34.746Z,101003.97
2023-05-05T08:41:37.170Z,100996.09
2023-05-05T08:44:39.695Z,101002.78
2023-05-05T08:47:43.406Z,101002.00
2023-05-05T08:50:49.177Z,101008.69
2023-05-05T08:54:03.243Z,100969.75
2023-05-05T08:57:07.555Z,100983.91
2023-05-05T09:00:11.323Z,101002.38
2023-05-05T09:03:14.704Z,101000.41
2023-05-05T09:06:17.479Z,100987.84
2023-05-05T09:09:20.615Z,100974.88
2023-05-05T09:12:23.484Z,100982.34
2023-05-05T09:15:28.403Z,100973.69
2023-05-05T09:18:30.991Z,100974.47
2023-05-05T09:21:33.471Z,100967.78
2023-05-05T09:24:35.880Z,100955.59
2023-05-05T09:27:42.163Z,100953.59
2023-05-05T09:30:46.357Z,100969.75
2023-05-05T09:33:48.943Z,100958.31
2023-05-05T09:36:51.378Z,100940.22
2023-05-05T09:39:54.568Z,100963.03
2023-05-05T09:43:02.028Z,100949.25
2023-05-05T09:46:08.465Z,100936.66
2023-05-05T09:49:19.667Z,100961.44
2023-05-05T09:52:22.282Z,100950.03
2023-05-05T09:55:25.161Z,100960.25
2023-05-05T09:58:29.422Z,100958.28
2023-05-05T10:01:31.868Z,100946.88
2023-05-05T10:04:34.345Z,100947.66
2023-05-05T10:07:37.792Z,100968.88
2023-05-05T10:10:56.233Z,100949.63
2023-05-05T10:13:58.643Z,100948.06
2023-05-05T10:17:01.858Z,100937.44
2023-05-05T10:20:04.780Z,100945.69
2023-05-05T10:23:08.480Z,100950.00
2023-05-05T10:26:13.653Z,100938.22
2023-05-05T10:29:48.925Z,100933.91
2023-05-05T10:33:00.839Z,100921.72
2023-05-05T10:36:11.146Z,100924.88
2023-05-05T10:39:17.223Z,100913.09
2023-05-05T10:42:20.217Z,100896.22
2023-05-05T10:45:22.709Z,100890.31
2023-05-05T10:48:33.858Z,100905.63
2023-05-05T10:51:45.495Z,100900.91
2023-05-05T10:54:55.731Z,100905.63
2023-05-05T10:57:58.123Z,100901.31
2023-05-05T11:01:00.912Z,100880.50
2023-05-05T11:04:23.157Z,100898.94
2023-05-05T11:07:27.599Z,100898.16
2023-05-05T11:10:44.277Z,100895.03
2023-05-05T11:13:46.634Z,100887.16
2023-05-05T11:16:50.617Z,100887.56
2023-05-05T11:19:53.516Z,100880.88
2023-05-05T11:23:05.472Z,100871.84
2023-05-05T11:26:08.945Z,100873.03
2023-05-05T11:29:11.427Z,100853.81
2023-05-05T11:32:14.394Z,100867.16
2023-05-05T11:35:16.819Z,100865.56
2023-05-05T11:38:20.209Z,100856.16
2023-05-05T11:41:32.117Z,100860.47
2023-05-05T11:44:34.725Z,100856.16
2023-05-05T11:47:37.203Z,100834.94
2023-05-05T11:50:39.746Z,100845.16
2023-05-05T11:53:50.000Z,100848.31
2023-05-05T11:57:02.109Z,100838.47
2023-05-05T12:00:08.056Z,100845.16
2023-05-05T12:03:10.867Z,100829.06
2023-05-05T12:06:13.312Z,100831.03
2023-05-05T12:09:16.915Z,100833.38
2023-05-05T12:12:19.580Z,100816.47
2023-05-05T12:15:29.386Z,100825.13
2023-05-05T12:18:31.712Z,100826.31
2023-05-05T12:21:38.332Z,100823.94
2023-05-05T12:24:40.709Z,100814.91
2023-05-05T12:27:51.977Z,100818.44
2023-05-05T12:30:58.085Z,100814.53
2023-05-05T12:34:00.537Z,100811.38
2023-05-05T12:37:03.445Z,100801.16
2023-05-05T12:40:07.497Z,100802.75
2023-05-05T12:43:10.878Z,100789.78
2023-05-05T12:46:13.893Z,100799.59
2023-05-05T12:49:17.020Z,100798.03
2023-05-05T12:52:19.481Z,100790.97
2023-05-05T12:55:36.142Z,100802.75
2023-05-05T12:58:50.956Z,100789.00
2023-05-05T13:01:55.467Z,100789.00
2023-05-05T13:04:57.962Z,100772.91
2023-05-05T13:08:00.526Z,100778.00
2023-05-05T13:11:03.216Z,100774.09
2023-05-05T13:14:06.835Z,100772.53
2023-05-05T13:17:10.606Z,100768.22
2023-05-05T13:20:14.163Z,100764.28
2023-05-05T13:23:16.556Z,100751.72
2023-05-05T13:26:18.988Z,100745.81
2023-05-05T13:29:21.431Z,100752.13
2023-05-05T13:32:23.946Z,100730.53
2023-05-05T13:35:26.566Z,100740.34
2023-05-05T13:38:29.274Z,100744.25
2023-05-05T13:41:31.639Z,100729.34
2023-05-05T13:44:35.528Z,100744.25
2023-05-05T13:47:38.466Z,100729.34
2023-05-05T13:50:40.848Z,100727.38
2023-05-05T13:53:44.252Z,100725.81
2023-05-05T13:56:46.685Z,100733.28
2023-05-05T13:59:49.039Z,100720.72
2023-05-05T14:02:51.495Z,100729.34
2023-05-05T14:05:53.834Z,100724.63
2023-05-05T14:08:56.394Z,100713.66
2023-05-05T14:11:59.116Z,100722.66
2023-05-05T14:15:01.665Z,100722.66
2023-05-05T14:18:04.186Z,100710.50
2023-05-05T14:21:06.607Z,100717.56
2023-05-05T14:24:09.065Z,100712.06
2023-05-05T14:27:11.504Z,100698.72
2023-05-05T14:30:14.350Z,100697.16
2023-05-05T14:33:17.137Z,100708.94
2023-05-05T14:36:19.614Z,100702.25
2023-05-05T14:39:21.943Z,100695.19
2023-05-05T14:42:25.120Z,100700.28
2023-05-05T14:45:29.659Z,100689.69
2023-05-05T14:48:35.249Z,100694.00
2023-05-05T14:51:37.638Z,100679.47
2023-05-05T14:54:39.984Z,100699.50
2023-05-05T14:57:42.325Z,100697.94
2023-05-05T15:00:44.672Z,100689.31
2023-05-05T15:03:47.059Z,100690.88
2023-05-05T15:06:49.521Z,100688.09
2023-05-05T15:09:51.830Z,100689.69
2023-05-05T15:12:54.174Z,100688.91
2023-05-05T15:15:56.602Z,100679.06
2023-05-05T15:18:58.970Z,100686.56
2023-05-05T15:22:01.340Z,100687.34
2023-05-05T15:25:03.944Z,100688.91
2023-05-05T15:28:06.289Z,100673.59
2023-05-05T15:31:08.659Z,100674.75
2023-05-05T15:34:11.023Z,100681.44
2023-05-05T15:37:13.373Z,100676.72
2023-05-05T15:40:15.896Z,100677.50
2023-05-05T15:43:18.298Z,100666.13
2023-05-05T15:46:20.874Z,100670.06
2023-05-05T15:49:23.253Z,100669.25
2023-05-05T15:52:25.668Z,100661.41
2023-05-05T15:55:28.240Z,100671.63
2023-05-05T15:58:43.652Z,100675.53
2023-05-05T16:01:50.243Z,100674.38
2023-05-05T16:04:56.133Z,100669.66
2023-05-05T16:07:59.128Z,100676.31
2023-05-05T16:11:01.471Z,100665.34
2023-05-05T16:14:04.111Z,100661.81
2023-05-05T16:17:07.761Z,100662.19
2023-05-05T16:20:11.267Z,100655.53
2023-05-05T16:23:13.672Z,100659.84
2023-05-05T16:26:16.644Z,100655.91
2023-05-05T16:29:19.011Z,100653.19
2023-05-05T16:32:21.389Z,100658.66
2023-05-05T16:35:23.712Z,100646.50
2023-05-05T16:38:26.142Z,100643.38
2023-05-05T16:41:28.690Z,100649.25
2023-05-05T16:44:31.171Z,100632.00
2023-05-05T16:47:33.659Z,100650.44
2023-05-05T16:50:36.003Z,100644.16
2023-05-05T16:53:38.506Z,100650.81
2023-05-05T16:56:40.948Z,100651.22
2023-05-05T16:59:43.342Z,100636.69
2023-05-05T17:02:45.809Z,100650.44
2023-05-05T17:05:50.250Z,100648.06
2023-05-05T17:08:52.791Z,100648.47
2023-05-05T17:11:55.228Z,100628.06
2023-05-05T17:14:57.554Z,100652.78
2023-05-05T17:17:59.952Z,100637.09
2023-05-05T17:21:02.294Z,100644.16
2023-05-05T17:24:05.056Z,100637.88
2023-05-05T17:27:07.588Z,100650.41
2023-05-05T17:30:10.298Z,100650.03
2023-05-05T17:33:12.750Z,100646.09
2023-05-05T17:36:15.119Z,100641.78
2023-05-05T17:39:17.544Z,100639.81
2023-05-05T17:42:22.987Z,100641.38
2023-05-05T17:45:25.438Z,100645.31
2023-05-05T17:48:27.899Z,100647.66
2023-05-05T17:51:31.413Z,100657.06
2023-05-05T17:54:33.763Z,100650.41
2023-05-05T17:57:36.263Z,100662.56
2023-05-05T18:00:38.576Z,100648.81
2023-05-05T18:03:41.211Z,100667.25
2023-05-05T18:06:43.720Z,100655.47
2023-05-05T18:09:46.087Z,100669.22
2023-05-05T18:12:48.560Z,100670.75
2023-05-05T18:15:51.030Z,100675.47
2023-05-05T18:18:53.496Z,100668.38
2023-05-05T18:21:55.872Z,100681.72
2023-05-05T18:24:59.725Z,100688.38
2023-05-05T18:28:02.141Z,100681.69
2023-05-05T18:31:04.707Z,100694.63
2023-05-05T18:34:07.172Z,100696.59
2023-05-05T18:37:09.552Z,100691.09
2023-05-05T18:40:12.304Z,100688.72
2023-05-05T18:43:14.673Z,100696.16
2023-05-05T18:46:17.249Z,100700.47
2023-05-05T18:49:19.692Z,100701.25
2023-05-05T18:52:22.008Z,100692.56
2023-05-05T18:55:24.461Z,100699.22
2023-05-05T18:58:27.389Z,100710.97
2023-05-05T19:01:29.796Z,100714.09
2023-05-05T19:04:33.006Z,100717.22
2023-05-05T19:07:36.118Z,100721.13
2023-05-05T19:10:38.661Z,100721.13
2023-05-05T19:13:41.370Z,100717.59
2023-05-05T19:16:44.093Z,100715.59
2023-05-05T19:19:46.493Z,100726.56
2023-05-05T19:22:49.022Z,100725.38
2023-05-05T19:25:52.920Z,100724.19
2023-05-05T19:28:55.362Z,100725.72
2023-05-05T19:31:57.856Z,100717.09
2023-05-05T19:35:00.686Z,100722.16
2023-05-05T19:38:03.100Z,100719.41
2023-05-05T19:41:05.501Z,100709.19
2023-05-05T19:44:07.904Z,100719.38
2023-05-05T19:47:10.946Z,100713.84
2023-05-05T19:50:15.471Z,100708.38
2023-05-05T19:53:17.836Z,100718.53
2023-05-05T19:56:20.180Z,100717.75
2023-05-05T19:59:22.854Z,100710.28
2023-05-05T20:02:27.230Z,100716.56
2023-05-05T20:05:29.720Z,100700.44
2023-05-05T20:08:32.147Z,100727.50
2023-05-05T20:11:34.642Z,100723.53
2023-05-05T20:14:37.045Z,100715.66
2023-05-05T20:17:39.469Z,100710.19
2023-05-05T20:20:42.207Z,100724.31
2023-05-05T20:23:45.603Z,100722.75
2023-05-05T20:26:47.944Z,100701.53
2023-05-05T20:29:50.320Z,100725.47
2023-05-05T20:32:53.607Z,100725.47
2023-05-05T20:35:56.011Z,100709.38
2023-05-05T20:38:58.338Z,100703.09
2023-05-05T20:42:01.274Z,100711.72
2023-05-05T20:45:04.057Z,100705.84
2023-05-05T20:48:09.846Z,100696.75
2023-05-05T20:51:12.268Z,100692.00
2023-05-05T20:54:14.638Z,100695.19
2023-05-05T20:57:17.020Z,100705.38
2023-05-05T21:00:19.381Z,100701.47
2023-05-05T21:03:21.748Z,100707.31
2023-05-05T21:06:24.383Z,100705.34
2023-05-05T21:09:26.893Z,100708.50
2023-05-05T21:12:29.892Z,100706.47
2023-05-05T21:15:32.650Z,100708.78
2023-05-05T21:18:36.134Z,100702.50
2023-05-05T21:21:38.511Z,100709.56
2023-05-05T21:24:40.873Z,100706.81
2023-05-05T21:27:43.390Z,100701.72
2023-05-05T21:30:54.838Z,100691.91
2023-05-05T21:34:07.272Z,100688.78
2023-05-05T21:37:09.717Z,100669.16
2023-05-05T21:40:14.000Z,100686.44
2023-05-05T21:43:17.050Z,100666.78
2023-05-05T21:46:19.430Z,100676.59
2023-05-05T21:49:21.951Z,100684.03
2023-05-05T21:52:24.294Z,100681.69
2023-05-05T21:55:26.645Z,100656.13
2023-05-05T21:58:29.299Z,100679.69
2023-05-05T22:01:31.979Z,100691.06
2023-05-05T22:04:34.301Z,100689.88
2023-05-05T22:07:37.065Z,100685.16
2023-05-05T22:10:39.577Z,100687.50
2023-05-05T22:13:42.099Z,100700.03
2023-05-05T22:16:44.487Z,100689.03
2023-05-05T22:19:46.851Z,100697.69
2023-05-05T22:22:49.253Z,100697.66
2023-05-05T22:25:51.615Z,100695.25
2023-05-05T22:28:53.961Z,100696.84
2023-05-05T22:31:56.310Z,100675.25
2023-05-05T22:34:58.687Z,100681.91
2023-05-05T22:38:01.533Z,100691.31
2023-05-05T22:41:04.052Z,100687.81
2023-05-05T22:44:06.969Z,100693.31
2023-05-05T22:47:09.441Z,100681.06
2023-05-05T22:50:11.773Z,100692.84
2023-05-05T22:53:14.151Z,100683.81
2023-05-05T22:56:16.939Z,100677.94
2023-05-05T22:59:19.331Z,100677.94
2023-05-05T23:02:21.749Z,100686.56
2023-05-05T23:05:24.207Z,100687.69
2023-05-05T23:08:26.673Z,100694.34
2023-05-05T23:11:29.056Z,100677.47
2023-05-05T23:14:31.467Z,100699.88
2023-05-05T23:17:33.896Z,100682.97
2023-05-05T23:20:36.277Z,100695.13
2023-05-05T23:23:38.608Z,100685.34
2023-05-05T23:26:40.977Z,100697.09
2023-05-05T23:29:43.308Z,100703.00
2023-05-05T23:32:46.038Z,100685.63
2023-05-05T23:35:48.509Z,100677.88
2023-05-05T23:38:50.823Z,100684.09
2023-05-05T23:41:53.159Z,100703.31
2023-05-05T23:44:55.549Z,100701.38
2023-05-05T23:47:57.944Z,100690.03
2023-05-05T23:51:00.330Z,100693.53
2023-05-05T23:54:02.730Z,100702.13
2023-05-05T23:57:05.155Z,100687.19
